sensor_id;sensor_type;location;lat;lon;timestamp;P1;durP1;ratioP1;P2;durP2;ratioP2
70073;SDS011;57445;51.058;3.698;2022-10-18T00:00:16;24.88;;;18.13;;
70073;SDS011;57445;51.058;3.698;2022-10-18T00:02:44;24.38;;;18.13;;
70073;SDS011;57445;51.058;3.698;2022-10-18T00:05:11;25.52;;;17.70;;
70073;SDS011;57445;51.058;3.698;2022-10-18T00:07:39;27.55;;;18.58;;
70073;SDS011;57445;51.058;3.698;2022-10-18T00:10:07;20.77;;;16.90;;
70073;SDS011;57445;51.058;3.698;2022-10-18T00:12:40;28.80;;;16.77;;
70073;SDS011;57445;51.058;3.698;2022-10-18T00:15:14;22.70;;;18.00;;
70073;SDS011;57445;51.058;3.698;2022-10-18T00:17:42;21.50;;;16.50;;
70073;SDS011;57445;51.058;3.698;2022-10-18T00:20:10;24.70;;;17.15;;
70073;SDS011;57445;51.058;3.698;2022-10-18T00:22:42;20.70;;;17.20;;
70073;SDS011;57445;51.058;3.698;2022-10-18T00:25:14;23.02;;;17.88;;
70073;SDS011;57445;51.058;3.698;2022-10-18T00:27:43;24.65;;;18.35;;
70073;SDS011;57445;51.058;3.698;2022-10-18T00:30:11;23.02;;;17.95;;
70073;SDS011;57445;51.058;3.698;2022-10-18T00:32:40;23.33;;;17.65;;
70073;SDS011;57445;51.058;3.698;2022-10-18T00:35:08;21.13;;;17.50;;
70073;SDS011;57445;51.058;3.698;2022-10-18T00:37:36;24.00;;;17.80;;
70073;SDS011;57445;51.058;3.698;2022-10-18T00:40:04;25.17;;;17.52;;
70073;SDS011;57445;51.058;3.698;2022-10-18T00:42:32;22.10;;;17.38;;
70073;SDS011;57445;51.058;3.698;2022-10-18T00:45:12;24.17;;;17.30;;
70073;SDS011;57445;51.058;3.698;2022-10-18T00:47:44;26.55;;;17.50;;
70073;SDS011;57445;51.058;3.698;2022-10-18T00:50:21;21.60;;;17.10;;
70073;SDS011;57445;51.058;3.698;2022-10-18T00:52:55;21.52;;;17.08;;
70073;SDS011;57445;51.058;3.698;2022-10-18T00:55:26;20.38;;;16.92;;
70073;SDS011;57445;51.058;3.698;2022-10-18T00:57:54;24.45;;;17.70;;
70073;SDS011;57445;51.058;3.698;2022-10-18T01:00:23;25.65;;;17.73;;
70073;SDS011;57445;51.058;3.698;2022-10-18T01:02:52;22.60;;;17.60;;
70073;SDS011;57445;51.058;3.698;2022-10-18T01:05:19;23.17;;;17.85;;
70073;SDS011;57445;51.058;3.698;2022-10-18T01:08:00;21.52;;;17.70;;
70073;SDS011;57445;51.058;3.698;2022-10-18T01:10:45;23.60;;;18.10;;
70073;SDS011;57445;51.058;3.698;2022-10-18T01:13:24;26.20;;;18.83;;
70073;SDS011;57445;51.058;3.698;2022-10-18T01:16:07;22.98;;;18.05;;
70073;SDS011;57445;51.058;3.698;2022-10-18T01:18:45;25.95;;;17.83;;
70073;SDS011;57445;51.058;3.698;2022-10-18T01:21:23;22.38;;;17.23;;
70073;SDS011;57445;51.058;3.698;2022-10-18T01:27:15;21.75;;;18.13;;
70073;SDS011;57445;51.058;3.698;2022-10-18T01:30:05;25.58;;;19.38;;
70073;SDS011;57445;51.058;3.698;2022-10-18T01:32:55;25.50;;;20.30;;
70073;SDS011;57445;51.058;3.698;2022-10-18T01:35:33;28.73;;;20.15;;
70073;SDS011;57445;51.058;3.698;2022-10-18T01:38:05;23.77;;;18.98;;
70073;SDS011;57445;51.058;3.698;2022-10-18T01:40:41;27.02;;;18.27;;
70073;SDS011;57445;51.058;3.698;2022-10-18T01:43:12;21.80;;;16.65;;
70073;SDS011;57445;51.058;3.698;2022-10-18T01:45:46;23.48;;;17.77;;
70073;SDS011;57445;51.058;3.698;2022-10-18T01:48:21;20.63;;;16.42;;
70073;SDS011;57445;51.058;3.698;2022-10-18T01:50:54;22.33;;;17.40;;
70073;SDS011;57445;51.058;3.698;2022-10-18T01:53:28;19.30;;;15.57;;
70073;SDS011;57445;51.058;3.698;2022-10-18T01:56:08;22.55;;;16.98;;
70073;SDS011;57445;51.058;3.698;2022-10-18T01:58:53;21.75;;;16.55;;
70073;SDS011;57445;51.058;3.698;2022-10-18T02:01:36;19.88;;;15.50;;
70073;SDS011;57445;51.058;3.698;2022-10-18T02:04:18;19.05;;;15.73;;
70073;SDS011;57445;51.058;3.698;2022-10-18T02:06:54;22.42;;;14.93;;
70073;SDS011;57445;51.058;3.698;2022-10-18T02:09:29;18.67;;;14.75;;
70073;SDS011;57445;51.058;3.698;2022-10-18T02:12:03;17.23;;;14.02;;
70073;SDS011;57445;51.058;3.698;2022-10-18T02:14:34;19.73;;;15.32;;
70073;SDS011;57445;51.058;3.698;2022-10-18T02:17:02;19.25;;;15.63;;
70073;SDS011;57445;51.058;3.698;2022-10-18T02:19:40;22.20;;;15.93;;
70073;SDS011;57445;51.058;3.698;2022-10-18T02:22:15;18.65;;;15.68;;
70073;SDS011;57445;51.058;3.698;2022-10-18T02:24:45;19.75;;;15.52;;
70073;SDS011;57445;51.058;3.698;2022-10-18T02:27:16;20.00;;;14.95;;
70073;SDS011;57445;51.058;3.698;2022-10-18T02:29:49;21.27;;;15.70;;
70073;SDS011;57445;51.058;3.698;2022-10-18T02:32:19;19.73;;;14.77;;
70073;SDS011;57445;51.058;3.698;2022-10-18T02:34:57;19.90;;;15.52;;
70073;SDS011;57445;51.058;3.698;2022-10-18T02:37:32;22.50;;;15.07;;
70073;SDS011;57445;51.058;3.698;2022-10-18T02:40:04;17.23;;;12.07;;
70073;SDS011;57445;51.058;3.698;2022-10-18T02:42:39;17.27;;;13.35;;
70073;SDS011;57445;51.058;3.698;2022-10-18T02:45:16;20.50;;;13.55;;
70073;SDS011;57445;51.058;3.698;2022-10-18T02:47:44;20.15;;;13.45;;
70073;SDS011;57445;51.058;3.698;2022-10-18T02:50:18;19.95;;;13.30;;
70073;SDS011;57445;51.058;3.698;2022-10-18T02:52:45;19.27;;;12.13;;
70073;SDS011;57445;51.058;3.698;2022-10-18T02:55:14;21.98;;;13.38;;
70073;SDS011;57445;51.058;3.698;2022-10-18T02:57:42;21.05;;;13.60;;
70073;SDS011;57445;51.058;3.698;2022-10-18T03:00:10;20.38;;;14.18;;
70073;SDS011;57445;51.058;3.698;2022-10-18T03:02:43;22.60;;;14.18;;
70073;SDS011;57445;51.058;3.698;2022-10-18T03:05:10;23.63;;;15.30;;
70073;SDS011;57445;51.058;3.698;2022-10-18T03:07:39;19.83;;;13.98;;
70073;SDS011;57445;51.058;3.698;2022-10-18T03:10:07;22.02;;;14.60;;
70073;SDS011;57445;51.058;3.698;2022-10-18T03:12:39;20.70;;;14.55;;
70073;SDS011;57445;51.058;3.698;2022-10-18T03:15:07;21.88;;;14.57;;
70073;SDS011;57445;51.058;3.698;2022-10-18T03:17:40;25.38;;;13.65;;
70073;SDS011;57445;51.058;3.698;2022-10-18T03:20:08;22.08;;;12.90;;
70073;SDS011;57445;51.058;3.698;2022-10-18T03:22:42;23.77;;;12.45;;
70073;SDS011;57445;51.058;3.698;2022-10-18T03:25:10;23.30;;;12.55;;
70073;SDS011;57445;51.058;3.698;2022-10-18T03:27:37;22.02;;;11.88;;
70073;SDS011;57445;51.058;3.698;2022-10-18T03:30:05;25.98;;;12.70;;
70073;SDS011;57445;51.058;3.698;2022-10-18T03:32:36;18.00;;;12.02;;
70073;SDS011;57445;51.058;3.698;2022-10-18T03:35:08;18.65;;;11.63;;
70073;SDS011;57445;51.058;3.698;2022-10-18T03:37:36;21.30;;;12.30;;
70073;SDS011;57445;51.058;3.698;2022-10-18T03:40:06;19.30;;;11.80;;
70073;SDS011;57445;51.058;3.698;2022-10-18T03:42:39;20.80;;;12.25;;
70073;SDS011;57445;51.058;3.698;2022-10-18T03:45:11;22.75;;;12.43;;
70073;SDS011;57445;51.058;3.698;2022-10-18T03:47:43;20.83;;;12.38;;
70073;SDS011;57445;51.058;3.698;2022-10-18T03:50:15;22.45;;;12.80;;
70073;SDS011;57445;51.058;3.698;2022-10-18T03:52:43;20.98;;;12.60;;
70073;SDS011;57445;51.058;3.698;2022-10-18T03:55:12;22.50;;;12.07;;
70073;SDS011;57445;51.058;3.698;2022-10-18T03:57:39;26.80;;;12.35;;
70073;SDS011;57445;51.058;3.698;2022-10-18T04:00:07;21.65;;;11.98;;
70073;SDS011;57445;51.058;3.698;2022-10-18T04:02:36;21.20;;;11.55;;
70073;SDS011;57445;51.058;3.698;2022-10-18T04:05:08;22.40;;;12.50;;
70073;SDS011;57445;51.058;3.698;2022-10-18T04:07:36;20.48;;;12.48;;
70073;SDS011;57445;51.058;3.698;2022-10-18T04:10:04;21.58;;;11.70;;
70073;SDS011;57445;51.058;3.698;2022-10-18T04:12:38;24.42;;;13.00;;
70073;SDS011;57445;51.058;3.698;2022-10-18T04:15:10;21.95;;;12.95;;
70073;SDS011;57445;51.058;3.698;2022-10-18T04:17:42;27.33;;;12.05;;
70073;SDS011;57445;51.058;3.698;2022-10-18T04:20:14;21.27;;;13.10;;
70073;SDS011;57445;51.058;3.698;2022-10-18T04:22:42;26.50;;;12.35;;
70073;SDS011;57445;51.058;3.698;2022-10-18T04:25:10;22.63;;;12.23;;
70073;SDS011;57445;51.058;3.698;2022-10-18T04:27:43;28.75;;;13.77;;
70073;SDS011;57445;51.058;3.698;2022-10-18T04:30:12;31.48;;;14.75;;
70073;SDS011;57445;51.058;3.698;2022-10-18T04:32:39;30.95;;;15.10;;
70073;SDS011;57445;51.058;3.698;2022-10-18T04:35:08;23.00;;;13.90;;
70073;SDS011;57445;51.058;3.698;2022-10-18T04:37:40;29.02;;;15.18;;
70073;SDS011;57445;51.058;3.698;2022-10-18T04:40:09;27.40;;;14.98;;
70073;SDS011;57445;51.058;3.698;2022-10-18T04:42:43;26.90;;;13.82;;
70073;SDS011;57445;51.058;3.698;2022-10-18T04:45:11;24.40;;;13.57;;
70073;SDS011;57445;51.058;3.698;2022-10-18T04:47:39;26.25;;;13.32;;
70073;SDS011;57445;51.058;3.698;2022-10-18T04:50:07;23.95;;;13.65;;
70073;SDS011;57445;51.058;3.698;2022-10-18T04:52:35;23.70;;;13.70;;
70073;SDS011;57445;51.058;3.698;2022-10-18T04:55:02;30.65;;;14.63;;
70073;SDS011;57445;51.058;3.698;2022-10-18T04:57:35;28.10;;;14.07;;
70073;SDS011;57445;51.058;3.698;2022-10-18T05:00:09;28.30;;;15.73;;
70073;SDS011;57445;51.058;3.698;2022-10-18T05:02:37;22.80;;;15.55;;
70073;SDS011;57445;51.058;3.698;2022-10-18T05:05:09;25.42;;;15.35;;
70073;SDS011;57445;51.058;3.698;2022-10-18T05:07:41;26.60;;;15.32;;
70073;SDS011;57445;51.058;3.698;2022-10-18T05:10:09;27.40;;;16.00;;
70073;SDS011;57445;51.058;3.698;2022-10-18T05:12:41;27.25;;;16.67;;
70073;SDS011;57445;51.058;3.698;2022-10-18T05:15:10;29.55;;;18.30;;
70073;SDS011;57445;51.058;3.698;2022-10-18T05:17:38;30.63;;;19.48;;
70073;SDS011;57445;51.058;3.698;2022-10-18T05:20:10;38.70;;;22.30;;
70073;SDS011;57445;51.058;3.698;2022-10-18T05:22:38;37.38;;;22.33;;
70073;SDS011;57445;51.058;3.698;2022-10-18T05:25:06;42.05;;;23.92;;
70073;SDS011;57445;51.058;3.698;2022-10-18T05:27:39;43.00;;;24.30;;
70073;SDS011;57445;51.058;3.698;2022-10-18T05:30:07;45.33;;;24.83;;
70073;SDS011;57445;51.058;3.698;2022-10-18T05:32:36;39.05;;;24.92;;
70073;SDS011;57445;51.058;3.698;2022-10-18T05:35:04;45.28;;;26.30;;
70073;SDS011;57445;51.058;3.698;2022-10-18T05:37:32;41.90;;;24.55;;
70073;SDS011;57445;51.058;3.698;2022-10-18T05:40:05;43.30;;;25.50;;
70073;SDS011;57445;51.058;3.698;2022-10-18T05:42:33;44.55;;;27.17;;
70073;SDS011;57445;51.058;3.698;2022-10-18T05:45:07;48.28;;;28.35;;
70073;SDS011;57445;51.058;3.698;2022-10-18T05:47:41;77.13;;;29.17;;
70073;SDS011;57445;51.058;3.698;2022-10-18T05:50:08;94.78;;;30.20;;
70073;SDS011;57445;51.058;3.698;2022-10-18T05:52:41;88.47;;;32.30;;
70073;SDS011;57445;51.058;3.698;2022-10-18T05:55:09;171.95;;;32.88;;
70073;SDS011;57445;51.058;3.698;2022-10-18T05:57:36;108.10;;;31.08;;
70073;SDS011;57445;51.058;3.698;2022-10-18T06:00:09;102.93;;;32.30;;
70073;SDS011;57445;51.058;3.698;2022-10-18T06:02:44;95.40;;;30.48;;
70073;SDS011;57445;51.058;3.698;2022-10-18T06:05:16;83.95;;;26.85;;
70073;SDS011;57445;51.058;3.698;2022-10-18T06:07:48;119.28;;;27.42;;
70073;SDS011;57445;51.058;3.698;2022-10-18T06:10:16;132.95;;;30.33;;
70073;SDS011;57445;51.058;3.698;2022-10-18T06:12:48;148.73;;;31.00;;
70073;SDS011;57445;51.058;3.698;2022-10-18T06:15:16;227.95;;;37.67;;
70073;SDS011;57445;51.058;3.698;2022-10-18T06:17:49;137.48;;;31.58;;
70073;SDS011;57445;51.058;3.698;2022-10-18T06:20:17;90.97;;;29.20;;
70073;SDS011;57445;51.058;3.698;2022-10-18T06:22:50;198.70;;;32.97;;
70073;SDS011;57445;51.058;3.698;2022-10-18T06:25:18;131.68;;;30.20;;
70073;SDS011;57445;51.058;3.698;2022-10-18T06:27:45;124.43;;;30.20;;
70073;SDS011;57445;51.058;3.698;2022-10-18T06:30:18;167.60;;;31.30;;
70073;SDS011;57445;51.058;3.698;2022-10-18T06:32:51;128.40;;;30.17;;
70073;SDS011;57445;51.058;3.698;2022-10-18T06:35:19;138.73;;;32.22;;
70073;SDS011;57445;51.058;3.698;2022-10-18T06:37:51;109.60;;;30.17;;
70073;SDS011;57445;51.058;3.698;2022-10-18T06:40:19;115.82;;;31.70;;
70073;SDS011;57445;51.058;3.698;2022-10-18T06:42:46;92.03;;;31.10;;
70073;SDS011;57445;51.058;3.698;2022-10-18T06:45:14;87.93;;;31.38;;
70073;SDS011;57445;51.058;3.698;2022-10-18T06:47:43;56.70;;;29.50;;
70073;SDS011;57445;51.058;3.698;2022-10-18T06:50:17;98.53;;;32.22;;
70073;SDS011;57445;51.058;3.698;2022-10-18T06:52:50;124.05;;;33.20;;
70073;SDS011;57445;51.058;3.698;2022-10-18T06:55:18;73.60;;;31.50;;
70073;SDS011;57445;51.058;3.698;2022-10-18T06:57:51;81.10;;;32.45;;
70073;SDS011;57445;51.058;3.698;2022-10-18T07:00:19;91.85;;;32.45;;
70073;SDS011;57445;51.058;3.698;2022-10-18T07:02:47;111.90;;;30.88;;
70073;SDS011;57445;51.058;3.698;2022-10-18T07:05:20;76.85;;;28.63;;
70073;SDS011;57445;51.058;3.698;2022-10-18T07:07:52;84.20;;;27.42;;
70073;SDS011;57445;51.058;3.698;2022-10-18T07:10:20;103.38;;;27.67;;
70073;SDS011;57445;51.058;3.698;2022-10-18T07:12:52;82.90;;;27.77;;
70073;SDS011;57445;51.058;3.698;2022-10-18T07:15:21;73.85;;;27.52;;
70073;SDS011;57445;51.058;3.698;2022-10-18T07:17:51;52.92;;;26.65;;
70073;SDS011;57445;51.058;3.698;2022-10-18T07:20:20;69.82;;;27.67;;
70073;SDS011;57445;51.058;3.698;2022-10-18T07:22:48;65.22;;;27.60;;
70073;SDS011;57445;51.058;3.698;2022-10-18T07:25:16;41.63;;;26.08;;
70073;SDS011;57445;51.058;3.698;2022-10-18T07:27:46;36.25;;;24.00;;
70073;SDS011;57445;51.058;3.698;2022-10-18T07:30:16;38.83;;;25.00;;
70073;SDS011;57445;51.058;3.698;2022-10-18T07:32:44;38.72;;;24.25;;
70073;SDS011;57445;51.058;3.698;2022-10-18T07:35:16;32.67;;;22.58;;
70073;SDS011;57445;51.058;3.698;2022-10-18T07:37:48;29.70;;;22.33;;
70073;SDS011;57445;51.058;3.698;2022-10-18T07:40:16;29.88;;;21.60;;
70073;SDS011;57445;51.058;3.698;2022-10-18T07:42:44;33.78;;;22.20;;
70073;SDS011;57445;51.058;3.698;2022-10-18T07:45:11;34.60;;;22.15;;
70073;SDS011;57445;51.058;3.698;2022-10-18T07:47:39;29.95;;;20.83;;
70073;SDS011;57445;51.058;3.698;2022-10-18T07:50:07;30.88;;;20.52;;
70073;SDS011;57445;51.058;3.698;2022-10-18T07:52:35;26.23;;;19.45;;
70073;SDS011;57445;51.058;3.698;2022-10-18T07:55:05;26.30;;;18.25;;
70073;SDS011;57445;51.058;3.698;2022-10-18T07:57:33;25.02;;;16.85;;
70073;SDS011;57445;51.058;3.698;2022-10-18T08:00:01;26.80;;;18.75;;
70073;SDS011;57445;51.058;3.698;2022-10-18T08:02:29;28.63;;;19.35;;
70073;SDS011;57445;51.058;3.698;2022-10-18T08:05:02;29.48;;;19.20;;
70073;SDS011;57445;51.058;3.698;2022-10-18T08:07:30;29.60;;;18.92;;
70073;SDS011;57445;51.058;3.698;2022-10-18T08:09:58;29.55;;;18.48;;
70073;SDS011;57445;51.058;3.698;2022-10-18T08:12:27;29.27;;;18.05;;
70073;SDS011;57445;51.058;3.698;2022-10-18T08:14:55;31.67;;;18.17;;
70073;SDS011;57445;51.058;3.698;2022-10-18T08:17:23;27.50;;;15.93;;
70073;SDS011;57445;51.058;3.698;2022-10-18T08:19:50;30.10;;;18.23;;
70073;SDS011;57445;51.058;3.698;2022-10-18T08:22:22;27.35;;;16.42;;
70073;SDS011;57445;51.058;3.698;2022-10-18T08:24:50;23.15;;;14.07;;
70073;SDS011;57445;51.058;3.698;2022-10-18T08:27:18;30.13;;;15.10;;
70073;SDS011;57445;51.058;3.698;2022-10-18T08:29:51;27.60;;;14.38;;
70073;SDS011;57445;51.058;3.698;2022-10-18T08:32:24;34.72;;;17.55;;
70073;SDS011;57445;51.058;3.698;2022-10-18T08:34:53;30.10;;;16.73;;
70073;SDS011;57445;51.058;3.698;2022-10-18T08:37:21;28.30;;;16.02;;
70073;SDS011;57445;51.058;3.698;2022-10-18T08:39:49;29.60;;;16.02;;
70073;SDS011;57445;51.058;3.698;2022-10-18T08:42:22;25.33;;;14.18;;
70073;SDS011;57445;51.058;3.698;2022-10-18T08:45:11;23.02;;;13.45;;
70073;SDS011;57445;51.058;3.698;2022-10-18T08:47:40;24.27;;;12.23;;
70073;SDS011;57445;51.058;3.698;2022-10-18T08:50:11;23.88;;;11.85;;
70073;SDS011;57445;51.058;3.698;2022-10-18T08:52:42;30.27;;;12.38;;
70073;SDS011;57445;51.058;3.698;2022-10-18T08:55:19;24.35;;;11.85;;
70073;SDS011;57445;51.058;3.698;2022-10-18T08:57:51;24.65;;;12.20;;
70073;SDS011;57445;51.058;3.698;2022-10-18T09:00:26;21.90;;;11.07;;
70073;SDS011;57445;51.058;3.698;2022-10-18T09:03:02;23.27;;;10.18;;
70073;SDS011;57445;51.058;3.698;2022-10-18T09:05:47;25.92;;;11.50;;
70073;SDS011;57445;51.058;3.698;2022-10-18T09:08:21;18.60;;;9.60;;
70073;SDS011;57445;51.058;3.698;2022-10-18T09:11:09;23.48;;;10.25;;
70073;SDS011;57445;51.058;3.698;2022-10-18T09:13:54;26.83;;;10.52;;
70073;SDS011;57445;51.058;3.698;2022-10-18T09:16:44;19.45;;;10.10;;
70073;SDS011;57445;51.058;3.698;2022-10-18T09:19:24;21.00;;;9.45;;
70073;SDS011;57445;51.058;3.698;2022-10-18T09:22:12;14.90;;;7.93;;
70073;SDS011;57445;51.058;3.698;2022-10-18T09:24:47;21.05;;;8.95;;
70073;SDS011;57445;51.058;3.698;2022-10-18T09:27:21;21.15;;;8.60;;
70073;SDS011;57445;51.058;3.698;2022-10-18T09:30:02;18.70;;;8.40;;
70073;SDS011;57445;51.058;3.698;2022-10-18T09:32:43;24.35;;;9.50;;
70073;SDS011;57445;51.058;3.698;2022-10-18T09:35:17;24.52;;;12.38;;
70073;SDS011;57445;51.058;3.698;2022-10-18T09:37:54;25.00;;;12.32;;
70073;SDS011;57445;51.058;3.698;2022-10-18T09:40:29;29.05;;;13.50;;
70073;SDS011;57445;51.058;3.698;2022-10-18T09:43:04;27.85;;;12.32;;
70073;SDS011;57445;51.058;3.698;2022-10-18T09:45:38;30.27;;;13.93;;
70073;SDS011;57445;51.058;3.698;2022-10-18T09:48:14;21.58;;;10.50;;
70073;SDS011;57445;51.058;3.698;2022-10-18T09:50:47;26.88;;;11.60;;
70073;SDS011;57445;51.058;3.698;2022-10-18T09:53:23;32.70;;;12.23;;
70073;SDS011;57445;51.058;3.698;2022-10-18T09:55:59;17.77;;;10.30;;
70073;SDS011;57445;51.058;3.698;2022-10-18T09:58:37;24.02;;;10.80;;
70073;SDS011;57445;51.058;3.698;2022-10-18T10:01:12;28.27;;;10.73;;
70073;SDS011;57445;51.058;3.698;2022-10-18T10:03:43;21.55;;;10.00;;
70073;SDS011;57445;51.058;3.698;2022-10-18T10:06:25;21.90;;;10.50;;
70073;SDS011;57445;51.058;3.698;2022-10-18T10:08:59;22.25;;;9.70;;
70073;SDS011;57445;51.058;3.698;2022-10-18T10:11:34;18.90;;;9.35;;
70073;SDS011;57445;51.058;3.698;2022-10-18T10:14:11;19.63;;;6.45;;
70073;SDS011;57445;51.058;3.698;2022-10-18T10:16:46;15.80;;;4.50;;
70073;SDS011;57445;51.058;3.698;2022-10-18T10:19:19;15.70;;;4.97;;
70073;SDS011;57445;51.058;3.698;2022-10-18T10:21:51;15.35;;;4.70;;
70073;SDS011;57445;51.058;3.698;2022-10-18T10:24:23;17.27;;;4.80;;
70073;SDS011;57445;51.058;3.698;2022-10-18T10:27:02;20.38;;;4.25;;
70073;SDS011;57445;51.058;3.698;2022-10-18T10:29:46;20.92;;;4.57;;
70073;SDS011;57445;51.058;3.698;2022-10-18T10:32:43;13.80;;;3.92;;
70073;SDS011;57445;51.058;3.698;2022-10-18T10:35:27;16.10;;;4.38;;
70073;SDS011;57445;51.058;3.698;2022-10-18T10:38:01;14.70;;;4.05;;
70073;SDS011;57445;51.058;3.698;2022-10-18T10:40:35;17.02;;;4.35;;
70073;SDS011;57445;51.058;3.698;2022-10-18T10:43:13;20.55;;;4.05;;
70073;SDS011;57445;51.058;3.698;2022-10-18T10:51:00;14.32;;;4.00;;
70073;SDS011;57445;51.058;3.698;2022-10-18T10:53:35;17.35;;;4.43;;
70073;SDS011;57445;51.058;3.698;2022-10-18T10:58:44;18.92;;;3.65;;
70073;SDS011;57445;51.058;3.698;2022-10-18T11:01:19;10.90;;;2.78;;
70073;SDS011;57445;51.058;3.698;2022-10-18T11:03:50;19.77;;;3.80;;
70073;SDS011;57445;51.058;3.698;2022-10-18T11:06:32;18.38;;;3.95;;
70073;SDS011;57445;51.058;3.698;2022-10-18T11:09:18;14.55;;;3.40;;
70073;SDS011;57445;51.058;3.698;2022-10-18T11:11:55;16.77;;;2.95;;
70073;SDS011;57445;51.058;3.698;2022-10-18T11:14:29;10.73;;;2.67;;
70073;SDS011;57445;51.058;3.698;2022-10-18T11:17:09;13.93;;;2.63;;
70073;SDS011;57445;51.058;3.698;2022-10-18T11:19:57;16.38;;;3.10;;
70073;SDS011;57445;51.058;3.698;2022-10-18T11:22:34;13.52;;;3.13;;
70073;SDS011;57445;51.058;3.698;2022-10-18T11:25:10;11.80;;;2.70;;
70073;SDS011;57445;51.058;3.698;2022-10-18T11:27:45;11.18;;;2.80;;
70073;SDS011;57445;51.058;3.698;2022-10-18T11:30:29;9.00;;;2.40;;
70073;SDS011;57445;51.058;3.698;2022-10-18T11:33:05;11.85;;;2.72;;
70073;SDS011;57445;51.058;3.698;2022-10-18T11:35:45;14.55;;;2.92;;
70073;SDS011;57445;51.058;3.698;2022-10-18T11:38:26;10.60;;;2.70;;
70073;SDS011;57445;51.058;3.698;2022-10-18T11:43:56;8.77;;;2.63;;
70073;SDS011;57445;51.058;3.698;2022-10-18T11:49:27;7.07;;;2.15;;
70073;SDS011;57445;51.058;3.698;2022-10-18T11:52:06;13.05;;;2.42;;
70073;SDS011;57445;51.058;3.698;2022-10-18T11:54:42;18.85;;;3.22;;
70073;SDS011;57445;51.058;3.698;2022-10-18T11:57:29;14.55;;;3.10;;
70073;SDS011;57445;51.058;3.698;2022-10-18T12:00:11;10.65;;;2.40;;
70073;SDS011;57445;51.058;3.698;2022-10-18T12:02:56;9.45;;;2.50;;
70073;SDS011;57445;51.058;3.698;2022-10-18T12:08:11;12.73;;;2.60;;
70073;SDS011;57445;51.058;3.698;2022-10-18T12:10:45;11.20;;;2.65;;
70073;SDS011;57445;51.058;3.698;2022-10-18T12:13:21;12.45;;;3.22;;
70073;SDS011;57445;51.058;3.698;2022-10-18T12:15:53;13.50;;;2.90;;
70073;SDS011;57445;51.058;3.698;2022-10-18T12:18:26;12.00;;;2.35;;
70073;SDS011;57445;51.058;3.698;2022-10-18T12:21:01;10.38;;;2.28;;
70073;SDS011;57445;51.058;3.698;2022-10-18T12:23:41;12.87;;;3.03;;
70073;SDS011;57445;51.058;3.698;2022-10-18T12:26:14;11.70;;;2.30;;
70073;SDS011;57445;51.058;3.698;2022-10-18T12:28:46;13.48;;;2.85;;
70073;SDS011;57445;51.058;3.698;2022-10-18T12:31:23;11.20;;;2.60;;
70073;SDS011;57445;51.058;3.698;2022-10-18T12:33:59;12.48;;;2.75;;
70073;SDS011;57445;51.058;3.698;2022-10-18T12:36:38;12.48;;;2.80;;
70073;SDS011;57445;51.058;3.698;2022-10-18T12:39:16;13.55;;;6.45;;
70073;SDS011;57445;51.058;3.698;2022-10-18T12:41:50;10.82;;;2.83;;
70073;SDS011;57445;51.058;3.698;2022-10-18T12:44:23;17.02;;;3.17;;
70073;SDS011;57445;51.058;3.698;2022-10-18T12:46:57;15.68;;;5.38;;
70073;SDS011;57445;51.058;3.698;2022-10-18T12:49:26;12.45;;;3.35;;
70073;SDS011;57445;51.058;3.698;2022-10-18T12:51:56;15.52;;;3.35;;
70073;SDS011;57445;51.058;3.698;2022-10-18T12:54:27;14.60;;;3.42;;
70073;SDS011;57445;51.058;3.698;2022-10-18T12:57:02;17.13;;;4.15;;
70073;SDS011;57445;51.058;3.698;2022-10-18T13:02:21;17.00;;;4.65;;
70073;SDS011;57445;51.058;3.698;2022-10-18T13:04:53;22.27;;;5.35;;
70073;SDS011;57445;51.058;3.698;2022-10-18T13:07:34;17.15;;;4.55;;
70073;SDS011;57445;51.058;3.698;2022-10-18T13:13:12;19.08;;;5.32;;
70073;SDS011;57445;51.058;3.698;2022-10-18T13:15:52;19.05;;;5.28;;
70073;SDS011;57445;51.058;3.698;2022-10-18T13:18:29;16.58;;;5.38;;
70073;SDS011;57445;51.058;3.698;2022-10-18T13:21:08;15.07;;;5.60;;
70073;SDS011;57445;51.058;3.698;2022-10-18T13:23:41;15.43;;;5.07;;
70073;SDS011;57445;51.058;3.698;2022-10-18T13:26:27;14.98;;;5.10;;
70073;SDS011;57445;51.058;3.698;2022-10-18T13:29:15;17.70;;;5.32;;
70073;SDS011;57445;51.058;3.698;2022-10-18T13:31:57;14.10;;;4.93;;
70073;SDS011;57445;51.058;3.698;2022-10-18T13:34:30;18.33;;;5.22;;
70073;SDS011;57445;51.058;3.698;2022-10-18T13:37:04;20.35;;;6.00;;
70073;SDS011;57445;51.058;3.698;2022-10-18T13:39:44;14.90;;;5.53;;
70073;SDS011;57445;51.058;3.698;2022-10-18T13:54:19;15.40;;;6.00;;
70073;SDS011;57445;51.058;3.698;2022-10-18T13:57:13;20.45;;;6.13;;
70073;SDS011;57445;51.058;3.698;2022-10-18T14:00:00;17.77;;;5.93;;
70073;SDS011;57445;51.058;3.698;2022-10-18T14:02:51;15.55;;;5.10;;
70073;SDS011;57445;51.058;3.698;2022-10-18T14:08:28;13.40;;;4.55;;
70073;SDS011;57445;51.058;3.698;2022-10-18T14:11:02;13.73;;;4.15;;
70073;SDS011;57445;51.058;3.698;2022-10-18T14:13:37;19.23;;;4.90;;
70073;SDS011;57445;51.058;3.698;2022-10-18T14:16:20;15.43;;;4.20;;
70073;SDS011;57445;51.058;3.698;2022-10-18T14:18:57;10.43;;;4.60;;
70073;SDS011;57445;51.058;3.698;2022-10-18T14:21:36;14.75;;;4.50;;
70073;SDS011;57445;51.058;3.698;2022-10-18T14:24:13;18.55;;;4.55;;
70073;SDS011;57445;51.058;3.698;2022-10-18T14:26:45;10.15;;;3.28;;
70073;SDS011;57445;51.058;3.698;2022-10-18T14:29:18;10.73;;;3.65;;
70073;SDS011;57445;51.058;3.698;2022-10-18T14:31:51;16.25;;;4.20;;
70073;SDS011;57445;51.058;3.698;2022-10-18T14:34:21;15.43;;;4.70;;
70073;SDS011;57445;51.058;3.698;2022-10-18T14:36:50;14.73;;;4.55;;
70073;SDS011;57445;51.058;3.698;2022-10-18T14:39:24;13.43;;;4.30;;
70073;SDS011;57445;51.058;3.698;2022-10-18T14:41:55;16.25;;;4.22;;
70073;SDS011;57445;51.058;3.698;2022-10-18T14:44:24;14.07;;;3.97;;
70073;SDS011;57445;51.058;3.698;2022-10-18T14:46:58;13.25;;;4.43;;
70073;SDS011;57445;51.058;3.698;2022-10-18T14:49:28;15.73;;;4.45;;
70073;SDS011;57445;51.058;3.698;2022-10-18T14:51:58;18.58;;;4.65;;
70073;SDS011;57445;51.058;3.698;2022-10-18T14:54:31;19.40;;;4.38;;
70073;SDS011;57445;51.058;3.698;2022-10-18T14:57:02;18.33;;;4.03;;
70073;SDS011;57445;51.058;3.698;2022-10-18T14:59:33;14.45;;;3.70;;
70073;SDS011;57445;51.058;3.698;2022-10-18T15:02:10;14.20;;;4.47;;
70073;SDS011;57445;51.058;3.698;2022-10-18T15:04:42;13.90;;;4.15;;
70073;SDS011;57445;51.058;3.698;2022-10-18T15:07:13;15.20;;;4.05;;
70073;SDS011;57445;51.058;3.698;2022-10-18T15:09:44;17.48;;;3.90;;
70073;SDS011;57445;51.058;3.698;2022-10-18T15:12:18;14.82;;;4.10;;
70073;SDS011;57445;51.058;3.698;2022-10-18T15:14:46;14.50;;;3.40;;
70073;SDS011;57445;51.058;3.698;2022-10-18T15:17:16;11.35;;;3.08;;
70073;SDS011;57445;51.058;3.698;2022-10-18T15:19:54;21.98;;;4.38;;
70073;SDS011;57445;51.058;3.698;2022-10-18T15:22:27;19.20;;;3.65;;
70073;SDS011;57445;51.058;3.698;2022-10-18T15:25:07;16.38;;;4.03;;
70073;SDS011;57445;51.058;3.698;2022-10-18T15:27:39;14.60;;;3.60;;
70073;SDS011;57445;51.058;3.698;2022-10-18T15:30:17;12.50;;;3.63;;
70073;SDS011;57445;51.058;3.698;2022-10-18T15:32:50;12.18;;;3.60;;
70073;SDS011;57445;51.058;3.698;2022-10-18T15:35:23;17.42;;;4.30;;
70073;SDS011;57445;51.058;3.698;2022-10-18T15:37:58;11.00;;;2.95;;
70073;SDS011;57445;51.058;3.698;2022-10-18T15:40:34;11.02;;;2.22;;